createdAt,value
2023-05-18T00:00:21.321Z,1020.83
2023-05-18T00:01:21.325Z,1020.83
2023-05-18T00:02:21.448Z,1020.77
2023-05-18T00:03:21.591Z,1020.81
2023-05-18T00:04:21.464Z,1020.79
2023-05-18T00:05:21.424Z,1020.78
2023-05-18T00:06:21.452Z,1020.82
2023-05-18T00:07:21.512Z,1020.78
2023-05-18T00:08:21.498Z,1020.84
2023-05-18T00:09:21.525Z,1020.78
2023-05-18T00:10:21.602Z,1020.81
2023-05-18T00:11:21.575Z,1020.85
2023-05-18T00:12:21.617Z,1020.84
2023-05-18T00:13:21.627Z,1020.81
2023-05-18T00:14:21.664Z,1020.79
2023-05-18T00:15:21.671Z,1020.79
2023-05-18T00:16:21.750Z,1020.78
2023-05-18T00:17:21.731Z,1020.72
2023-05-18T00:18:21.746Z,1020.74
2023-05-18T00:19:21.868Z,1020.77
2023-05-18T00:20:21.800Z,1020.78
2023-05-18T00:21:21.823Z,1020.80
2023-05-18T00:22:21.847Z,1020.80
2023-05-18T00:23:21.873Z,1020.79
2023-05-18T00:24:21.903Z,1020.79
2023-05-18T00:25:21.922Z,1020.76
2023-05-18T00:26:21.948Z,1020.78
2023-05-18T00:27:21.973Z,1020.76
2023-05-18T00:28:22.017Z,1020.74
2023-05-18T00:29:22.022Z,1020.81
2023-05-18T00:30:22.058Z,1020.77
2023-05-18T00:31:22.108Z,1020.76
2023-05-18T00:32:22.104Z,1020.80
2023-05-18T00:33:22.125Z,1020.77
2023-05-18T00:34:22.161Z,1020.79
2023-05-18T00:35:22.179Z,1020.80
2023-05-18T00:36:22.200Z,1020.78
2023-05-18T00:37:22.225Z,1020.78
2023-05-18T00:38:22.248Z,1020.79
2023-05-18T00:39:22.282Z,1020.82
2023-05-18T00:40:22.299Z,1020.80
2023-05-18T00:41:22.324Z,1020.81
2023-05-18T00:42:22.346Z,1020.75
2023-05-18T00:43:22.382Z,1020.77
2023-05-18T00:44:22.424Z,1020.80
2023-05-18T00:45:22.435Z,1020.78
2023-05-18T00:46:22.461Z,1020.77
2023-05-18T00:47:22.474Z,1020.76
2023-05-18T00:48:22.527Z,1020.78
2023-05-18T00:49:22.545Z,1020.77
2023-05-18T00:50:22.549Z,1020.77
2023-05-18T00:51:22.580Z,1020.72
2023-05-18T00:52:22.612Z,1020.79
2023-05-18T00:53:22.623Z,1020.79
2023-05-18T00:54:22.645Z,1020.90
2023-05-18T00:55:22.683Z,1020.86
2023-05-18T00:56:22.699Z,1020.84
2023-05-18T00:57:22.724Z,1020.80
2023-05-18T00:58:22.748Z,1020.84
2023-05-18T00:59:22.777Z,1020.83
2023-05-18T01:00:22.837Z,1020.82
2023-05-18T01:01:22.885Z,1020.85
2023-05-18T01:02:22.871Z,1020.80
2023-05-18T01:03:22.905Z,1020.81
2023-05-18T01:04:22.898Z,1020.83
2023-05-18T01:05:22.920Z,1020.78
2023-05-18T01:06:22.944Z,1020.82
2023-05-18T01:07:22.972Z,1020.77
2023-05-18T01:08:22.992Z,1020.85
2023-05-18T01:09:23.028Z,1020.79
2023-05-18T01:10:23.057Z,1020.83
2023-05-18T01:11:23.130Z,1020.78
2023-05-18T01:12:23.095Z,1020.76
2023-05-18T01:13:23.118Z,1020.75
2023-05-18T01:14:23.140Z,1020.78
2023-05-18T01:15:23.166Z,1020.77
2023-05-18T01:16:23.270Z,1020.80
2023-05-18T01:17:23.216Z,1020.78
2023-05-18T01:18:23.238Z,1020.78
2023-05-18T01:19:23.290Z,1020.75
2023-05-18T01:20:23.290Z,1020.77
2023-05-18T01:21:23.322Z,1020.76
2023-05-18T01:22:23.346Z,1020.75
2023-05-18T01:23:23.363Z,1020.72
2023-05-18T01:24:23.444Z,1020.78
2023-05-18T01:25:23.411Z,1020.77
2023-05-18T01:26:23.444Z,1020.74
2023-05-18T01:27:23.465Z,1020.77
2023-05-18T01:28:23.484Z,1020.74
2023-05-18T01:29:23.510Z,1020.78
2023-05-18T01:30:23.536Z,1020.71
2023-05-18T01:31:23.637Z,1020.74
2023-05-18T01:32:23.652Z,1020.73
2023-05-18T01:33:23.610Z,1020.77
2023-05-18T01:34:23.632Z,1020.81
2023-05-18T01:35:23.658Z,1020.78
2023-05-18T01:36:23.679Z,1020.75
2023-05-18T01:37:23.705Z,1020.72
2023-05-18T01:38:23.739Z,1020.75
2023-05-18T01:39:23.757Z,1020.79
2023-05-18T01:40:23.778Z,1020.81
2023-05-18T01:41:23.804Z,1020.79
2023-05-18T01:42:23.829Z,1020.75
2023-05-18T01:43:23.858Z,1020.79
2023-05-18T01:44:23.888Z,1020.80
2023-05-18T01:45:23.903Z,1020.81
2023-05-18T01:46:24.002Z,1020.79
2023-05-18T01:47:23.960Z,1020.78
2023-05-18T01:48:23.997Z,1020.77
2023-05-18T01:49:23.997Z,1020.79
2023-05-18T01:50:24.024Z,1020.86
2023-05-18T01:51:24.050Z,1020.78
2023-05-18T01:52:24.075Z,1020.74
2023-05-18T01:53:24.101Z,1020.80
2023-05-18T01:54:24.122Z,1020.85
2023-05-18T01:55:24.161Z,1020.83
2023-05-18T01:56:24.171Z,1020.86
2023-05-18T01:57:24.202Z,1020.89
2023-05-18T01:58:24.219Z,1020.86
2023-05-18T01:59:24.243Z,1020.87
2023-05-18T02:00:24.280Z,1020.90
2023-05-18T02:01:24.344Z,1020.90
2023-05-18T02:02:24.427Z,1020.85
2023-05-18T02:03:24.429Z,1020.89
2023-05-18T02:04:24.459Z,1020.88
2023-05-18T02:05:24.401Z,1020.87
2023-05-18T02:06:24.418Z,1020.87
2023-05-18T02:07:24.441Z,1020.86
2023-05-18T02:08:24.465Z,1020.88
2023-05-18T02:09:24.493Z,1020.86
2023-05-18T02:10:24.511Z,1020.83
2023-05-18T02:11:24.538Z,1020.81
2023-05-18T02:12:24.562Z,1020.82
2023-05-18T02:13:24.584Z,1020.81
2023-05-18T02:14:24.607Z,1020.84
2023-05-18T02:15:24.630Z,1020.83
2023-05-18T02:16:24.707Z,1020.84
2023-05-18T02:17:24.721Z,1020.85
2023-05-18T02:18:24.706Z,1020.78
2023-05-18T02:19:24.873Z,1020.82
2023-05-18T02:20:24.880Z,1020.83
2023-05-18T02:21:24.776Z,1020.82
2023-05-18T02:22:24.801Z,1020.81
2023-05-18T02:23:24.896Z,1020.87
2023-05-18T02:24:24.854Z,1020.84
2023-05-18T02:25:24.875Z,1020.81
2023-05-18T02:26:24.894Z,1020.87
2023-05-18T02:27:24.928Z,1020.82
2023-05-18T02:28:24.943Z,1020.84
2023-05-18T02:29:24.969Z,1020.81
2023-05-18T02:30:24.998Z,1020.81
2023-05-18T02:31:25.020Z,1020.83
2023-05-18T02:32:25.088Z,1020.83
2023-05-18T02:33:25.066Z,1020.81
2023-05-18T02:34:25.089Z,1020.83
2023-05-18T02:35:25.118Z,1020.86
2023-05-18T02:36:25.212Z,1020.84
2023-05-18T02:37:25.165Z,1020.86
2023-05-18T02:38:25.184Z,1020.84
2023-05-18T02:39:25.208Z,1020.83
2023-05-18T02:40:25.233Z,1020.86
2023-05-18T02:41:25.256Z,1020.82
2023-05-18T02:42:25.282Z,1020.83
2023-05-18T02:43:25.307Z,1020.85
2023-05-18T02:44:25.330Z,1020.85
2023-05-18T02:45:25.385Z,1020.94
2023-05-18T02:46:25.459Z,1020.86
2023-05-18T02:47:25.412Z,1020.89
2023-05-18T02:48:25.428Z,1020.89
2023-05-18T02:49:25.456Z,1020.89
2023-05-18T02:50:25.478Z,1020.88
2023-05-18T02:51:25.503Z,1020.91
2023-05-18T02:52:25.543Z,1020.90
2023-05-18T02:53:25.561Z,1020.91
2023-05-18T02:54:25.575Z,1020.89
2023-05-18T02:55:25.598Z,1020.89
2023-05-18T02:56:25.626Z,1020.87
2023-05-18T02:57:25.647Z,1020.86
2023-05-18T02:58:25.765Z,1020.88
2023-05-18T02:59:25.700Z,1020.88
2023-05-18T03:00:25.785Z,1020.89
2023-05-18T03:01:25.805Z,1020.87
2023-05-18T03:02:25.789Z,1020.83
2023-05-18T03:03:25.987Z,1020.90
2023-05-18T03:04:26.166Z,1020.88
2023-05-18T03:05:25.841Z,1020.89
2023-05-18T03:06:26.084Z,1020.91
2023-05-18T03:07:25.889Z,1020.91
2023-05-18T03:08:26.000Z,1020.89
2023-05-18T03:09:25.938Z,1020.93
2023-05-18T03:10:25.963Z,1020.90
2023-05-18T03:11:25.994Z,1020.91
2023-05-18T03:12:26.013Z,1020.93
2023-05-18T03:13:26.033Z,1020.90
2023-05-18T03:14:26.061Z,1020.91
2023-05-18T03:15:26.083Z,1020.89
2023-05-18T03:16:26.116Z,1020.91
2023-05-18T03:17:26.181Z,1020.92
2023-05-18T03:18:26.156Z,1020.94
2023-05-18T03:19:26.237Z,1020.90
2023-05-18T03:20:26.204Z,1020.93
2023-05-18T03:21:26.232Z,1020.92
2023-05-18T03:22:26.266Z,1020.93
2023-05-18T03:23:26.273Z,1020.95
2023-05-18T03:24:26.329Z,1020.95
2023-05-18T03:25:26.322Z,1020.92
2023-05-18T03:26:26.346Z,1020.96
2023-05-18T03:27:26.368Z,1020.94
2023-05-18T03:28:26.397Z,1020.94
2023-05-18T03:29:26.417Z,1020.96
2023-05-18T03:30:26.446Z,1020.94
2023-05-18T03:31:26.489Z,1021.00
2023-05-18T03:32:26.511Z,1021.00
2023-05-18T03:33:26.515Z,1020.98
2023-05-18T03:34:26.540Z,1021.05
2023-05-18T03:35:26.565Z,1021.05
2023-05-18T03:37:09.137Z,1021.04
2023-05-18T03:38:09.166Z,1020.99
2023-05-18T03:39:09.184Z,1021.03
2023-05-18T03:40:09.296Z,1021.02
2023-05-18T03:41:09.234Z,1020.99
2023-05-18T03:42:09.257Z,1021.03
2023-05-18T03:43:09.281Z,1021.06
2023-05-18T03:44:09.310Z,1021.05
2023-05-18T03:45:09.326Z,1021.07
2023-05-18T03:46:09.384Z,1021.04
2023-05-18T03:47:09.371Z,1021.07
2023-05-18T03:48:09.441Z,1021.08
2023-05-18T03:49:09.426Z,1021.02
2023-05-18T03:50:09.467Z,1021.11
2023-05-18T03:51:09.479Z,1021.04
2023-05-18T03:52:09.490Z,1021.05
2023-05-18T03:53:09.523Z,1021.07
2023-05-18T03:54:09.539Z,1021.04
2023-05-18T03:55:09.565Z,1021.08
2023-05-18T03:56:09.611Z,1021.05
2023-05-18T03:57:09.621Z,1021.09
2023-05-18T03:58:09.634Z,1021.09
2023-05-18T03:59:09.863Z,1021.06
2023-05-18T04:00:12.320Z,1021.06
2023-05-18T04:01:09.698Z,1021.03
2023-05-18T04:02:09.803Z,1021.07
2023-05-18T04:03:09.823Z,1021.10
2023-05-18T04:04:09.847Z,1021.09
2023-05-18T04:05:09.795Z,1021.10
2023-05-18T04:06:09.819Z,1021.07
2023-05-18T04:07:09.857Z,1021.08
2023-05-18T04:08:09.877Z,1021.10
2023-05-18T04:09:09.888Z,1021.04
2023-05-18T04:10:10.020Z,1021.10
2023-05-18T04:11:09.933Z,1021.12
2023-05-18T04:12:10.115Z,1021.10
2023-05-18T04:13:10.025Z,1021.10
2023-05-18T04:14:10.011Z,1021.15
2023-05-18T04:15:10.034Z,1021.13
2023-05-18T04:17:02.623Z,1021.17
2023-05-18T04:18:02.676Z,1021.16
2023-05-18T04:19:03.865Z,1021.12
2023-05-18T04:20:02.710Z,1021.15
2023-05-18T04:21:02.720Z,1021.14
2023-05-18T04:22:02.743Z,1021.19
2023-05-18T04:23:02.768Z,1021.13
2023-05-18T04:24:02.854Z,1021.13
2023-05-18T04:25:02.818Z,1021.13
2023-05-18T04:26:02.849Z,1021.18
2023-05-18T04:27:02.912Z,1021.19
2023-05-18T04:28:02.910Z,1021.18
2023-05-18T04:29:02.914Z,1021.19
2023-05-18T04:30:02.946Z,1021.15
2023-05-18T04:31:02.960Z,1021.17
2023-05-18T04:32:03.015Z,1021.16
2023-05-18T04:33:03.057Z,1021.16
2023-05-18T04:34:03.035Z,1021.21
2023-05-18T04:35:03.058Z,1021.21
2023-05-18T04:36:03.084Z,1021.20
2023-05-18T04:37:03.161Z,1021.24
2023-05-18T04:38:03.129Z,1021.24
2023-05-18T04:39:03.159Z,1021.24
2023-05-18T04:40:03.183Z,1021.26
2023-05-18T04:41:03.201Z,1021.23
2023-05-18T04:42:03.228Z,1021.26
2023-05-18T04:43:03.252Z,1021.29
2023-05-18T04:44:03.301Z,1021.30
2023-05-18T04:45:03.297Z,1021.23
2023-05-18T04:46:03.362Z,1021.22
2023-05-18T04:47:03.346Z,1021.21
2023-05-18T04:48:03.428Z,1021.24
2023-05-18T04:49:03.396Z,1021.22
2023-05-18T04:50:03.422Z,1021.24
2023-05-18T04:51:03.454Z,1021.22
2023-05-18T04:52:03.487Z,1021.31
2023-05-18T04:53:03.508Z,1021.26
2023-05-18T04:54:46.063Z,1021.28
2023-05-18T04:55:46.088Z,1021.35
2023-05-18T04:56:48.731Z,1021.35
2023-05-18T04:57:46.137Z,1021.34
2023-05-18T04:58:46.179Z,1021.37
2023-05-18T04:59:46.203Z,1021.35
2023-05-18T05:00:46.207Z,1021.38
2023-05-18T05:01:46.354Z,1021.37
2023-05-18T05:02:46.367Z,1021.36
2023-05-18T05:03:46.459Z,1021.34
2023-05-18T05:04:46.304Z,1021.35
2023-05-18T05:05:46.327Z,1021.36
2023-05-18T05:06:46.352Z,1021.36
2023-05-18T05:07:46.381Z,1021.32
2023-05-18T05:08:46.401Z,1021.32
2023-05-18T05:09:46.428Z,1021.29
2023-05-18T05:10:49.082Z,1021.32
2023-05-18T05:11:46.507Z,1021.31
2023-05-18T05:12:49.184Z,1021.32
2023-05-18T05:13:46.519Z,1021.32
2023-05-18T05:14:46.543Z,1021.35
2023-05-18T05:15:46.633Z,1021.31
2023-05-18T05:17:34.200Z,1021.34
2023-05-18T05:20:57.634Z,1021.34
2023-05-18T05:21:54.423Z,1021.32
2023-05-18T05:22:54.462Z,1021.35
2023-05-18T05:23:54.468Z,1021.38
2023-05-18T05:24:54.494Z,1021.39
2023-05-18T05:25:54.516Z,1021.43
2023-05-18T05:26:54.538Z,1021.43
2023-05-18T05:27:54.568Z,1021.43
2023-05-18T05:28:54.590Z,1021.42
2023-05-18T05:29:54.628Z,1021.39
2023-05-18T05:30:54.676Z,1021.40
2023-05-18T05:31:54.704Z,1021.40
2023-05-18T05:32:54.726Z,1021.39
2023-05-18T05:33:55.951Z,1021.37
2023-05-18T05:34:54.757Z,1021.41
2023-05-18T05:35:55.086Z,1021.42
2023-05-18T05:36:54.789Z,1021.51
2023-05-18T05:37:54.836Z,1021.44
2023-05-18T05:38:54.841Z,1021.37
2023-05-18T05:39:54.870Z,1021.40
2023-05-18T05:40:54.894Z,1021.48
2023-05-18T05:43:07.536Z,1021.44
2023-05-18T05:50:00.182Z,1021.48
2023-05-18T05:52:00.161Z,1021.43
2023-05-18T05:54:00.207Z,1021.42
2023-05-18T05:55:42.764Z,1021.40
2023-05-18T05:56:42.788Z,1021.39
2023-05-18T05:57:42.903Z,1021.45
2023-05-18T05:58:42.839Z,1021.40
2023-05-18T06:02:13.842Z,1021.45
2023-05-18T06:03:14.139Z,1021.41
2023-05-18T06:04:13.866Z,1021.45
2023-05-18T06:05:56.470Z,1021.40
2023-05-18T06:08:39.012Z,1021.39
2023-05-18T06:09:39.050Z,1021.47
2023-05-18T06:11:39.120Z,1021.48
2023-05-18T06:12:39.144Z,1021.49
2023-05-18T06:13:39.180Z,1021.50
2023-05-18T06:14:39.217Z,1021.50
2023-05-18T06:15:39.458Z,1021.49
2023-05-18T06:17:40.062Z,1021.50
2023-05-18T06:18:40.739Z,1021.51
2023-05-18T06:19:39.378Z,1021.53
2023-05-18T06:20:39.399Z,1021.49
2023-05-18T06:22:22.145Z,1021.56
2023-05-18T06:24:04.572Z,1021.57
2023-05-18T06:25:04.606Z,1021.60
2023-05-18T06:30:48.427Z,1021.60
2023-05-18T06:34:18.606Z,1021.68
2023-05-18T06:35:19.991Z,1021.73
2023-05-18T06:36:22.314Z,1021.65
2023-05-18T06:37:19.033Z,1021.63
2023-05-18T06:38:18.765Z,1021.64
2023-05-18T06:39:19.002Z,1021.67
2023-05-18T06:42:18.891Z,1021.67
2023-05-18T06:43:19.734Z,1021.69
2023-05-18T06:46:19.077Z,1021.73
2023-05-18T06:47:19.075Z,1021.75
2023-05-18T06:49:19.584Z,1021.69
2023-05-18T06:50:19.603Z,1021.73
2023-05-18T06:51:19.249Z,1021.73
2023-05-18T06:52:19.255Z,1021.75
2023-05-18T06:53:19.513Z,1021.68
2023-05-18T06:58:19.514Z,1021.75
2023-05-18T06:59:19.512Z,1021.76
2023-05-18T07:00:19.556Z,1021.74
2023-05-18T07:01:19.653Z,1021.70
2023-05-18T07:02:19.624Z,1021.73
2023-05-18T07:03:19.784Z,1021.77
2023-05-18T07:04:20.703Z,1021.75
2023-05-18T07:07:17.377Z,1021.72
2023-05-18T07:08:17.646Z,1021.70
2023-05-18T07:09:17.663Z,1021.69
2023-05-18T07:10:17.475Z,1021.73
2023-05-18T07:11:17.512Z,1021.75
2023-05-18T07:12:17.567Z,1021.75
2023-05-18T07:15:00.830Z,1021.78
2023-05-18T07:16:00.263Z,1021.74
2023-05-18T07:17:00.273Z,1021.72
2023-05-18T07:19:08.128Z,1021.74
2023-05-18T07:20:08.162Z,1021.76
2023-05-18T07:21:08.174Z,1021.77
2023-05-18T07:22:08.220Z,1021.75
2023-05-18T07:23:08.260Z,1021.74
2023-05-18T07:24:08.295Z,1021.75
2023-05-18T07:25:08.343Z,1021.74
2023-05-18T07:26:08.370Z,1021.77
2023-05-18T07:27:08.407Z,1021.75
2023-05-18T07:28:08.455Z,1021.73
2023-05-18T07:29:08.483Z,1021.69
2023-05-18T07:30:08.572Z,1021.72
2023-05-18T07:31:08.620Z,1021.73
2023-05-18T07:32:08.610Z,1021.70
2023-05-18T07:33:08.697Z,1021.72
2023-05-18T07:34:08.680Z,1021.68
2023-05-18T07:35:08.937Z,1021.73
2023-05-18T07:36:08.760Z,1021.74
2023-05-18T07:37:08.791Z,1021.69
2023-05-18T07:38:08.853Z,1021.65
2023-05-18T07:39:08.873Z,1021.66
2023-05-18T07:40:08.920Z,1021.67
2023-05-18T07:41:08.946Z,1021.63
2023-05-18T07:42:09.203Z,1021.66
2023-05-18T07:44:09.282Z,1021.65
2023-05-18T07:45:09.122Z,1021.66
2023-05-18T08:01:10.073Z,1021.50
2023-05-18T08:20:11.142Z,1021.47
2023-05-18T08:21:10.742Z,1021.47
2023-05-18T08:22:10.578Z,1021.47
2023-05-18T08:24:11.476Z,1021.43
2023-05-18T08:25:10.685Z,1021.40
2023-05-18T08:26:13.163Z,1021.40
2023-05-18T08:27:10.764Z,1021.41
2023-05-18T08:28:10.786Z,1021.42
2023-05-18T08:29:11.632Z,1021.40
2023-05-18T08:30:10.876Z,1021.41
2023-05-18T08:31:11.120Z,1021.40
2023-05-18T08:32:10.999Z,1021.42
2023-05-18T08:33:11.032Z,1021.35
2023-05-18T08:35:11.071Z,1021.29
2023-05-18T08:36:11.133Z,1021.28
2023-05-18T08:37:11.349Z,1021.27
2023-05-18T08:39:11.225Z,1021.25
2023-05-18T08:40:11.983Z,1021.23
2023-05-18T08:41:11.317Z,1021.20
2023-05-18T09:15:05.914Z,1020.80
2023-05-18T09:16:06.201Z,1020.81
2023-05-18T09:17:06.183Z,1020.77
2023-05-18T09:19:48.593Z,1020.81
2023-05-18T09:21:36.200Z,1020.84
2023-05-18T09:22:36.250Z,1020.73
2023-05-18T09:23:36.278Z,1020.72
2023-05-18T09:24:39.130Z,1020.72
2023-05-18T09:25:36.550Z,1020.78
2023-05-18T09:26:36.385Z,1020.73
2023-05-18T09:28:36.440Z,1020.65
2023-05-18T09:30:29.074Z,1020.68
2023-05-18T09:31:29.117Z,1020.98
2023-05-18T09:32:29.170Z,1020.97
2023-05-18T09:33:29.204Z,1020.76
2023-05-18T09:35:41.820Z,1020.86
2023-05-18T09:36:41.853Z,1020.76
2023-05-18T09:37:41.899Z,1020.61
2023-05-18T09:38:41.916Z,1020.82
2023-05-18T09:39:42.556Z,1020.68
2023-05-18T09:40:42.001Z,1020.66
2023-05-18T09:41:42.343Z,1020.82
2023-05-18T09:42:42.052Z,1020.88
2023-05-18T09:44:24.639Z,1020.76
2023-05-18T09:45:24.690Z,1020.74
2023-05-18T09:46:24.880Z,1020.64
2023-05-18T09:47:24.779Z,1020.74
2023-05-18T09:48:25.492Z,1020.87
2023-05-18T09:49:24.831Z,1020.92
2023-05-18T09:52:24.906Z,1020.89
2023-05-18T09:53:24.939Z,1020.87
2023-05-18T09:54:24.974Z,1020.82
2023-05-18T09:55:25.754Z,1020.84
2023-05-18T09:56:25.053Z,1020.81
2023-05-18T09:57:25.276Z,1020.87
2023-05-18T09:58:25.125Z,1020.86
2023-05-18T09:59:25.345Z,1020.86
2023-05-18T10:00:25.726Z,1020.74
2023-05-18T10:01:25.319Z,1020.83
2023-05-18T10:02:25.339Z,1020.87
2023-05-18T10:03:25.277Z,1020.83
2023-05-18T10:04:25.404Z,1020.78
2023-05-18T10:05:25.547Z,1020.79
2023-05-18T10:06:25.389Z,1020.82
2023-05-18T10:07:25.426Z,1020.74
2023-05-18T10:08:25.459Z,1020.71
2023-05-18T10:09:25.700Z,1020.72
2023-05-18T10:10:25.522Z,1020.69
2023-05-18T10:11:25.561Z,1020.76
2023-05-18T10:12:25.579Z,1020.59
2023-05-18T10:13:25.614Z,1020.68
2023-05-18T10:14:25.656Z,1020.70
2023-05-18T10:15:25.693Z,1020.68
2023-05-18T10:25:26.045Z,1020.28
2023-05-18T10:26:26.056Z,1020.48
2023-05-18T10:27:26.088Z,1020.45
2023-05-18T10:28:26.181Z,1020.44
2023-05-18T10:29:26.161Z,1020.51
2023-05-18T10:30:26.200Z,1020.44
2023-05-18T10:31:26.277Z,1020.41
2023-05-18T10:32:26.527Z,1020.43
2023-05-18T10:33:29.614Z,1020.41
2023-05-18T10:34:26.831Z,1020.19
2023-05-18T10:35:26.370Z,1020.15
2023-05-18T10:36:26.402Z,1020.29
2023-05-18T10:37:26.444Z,1020.18
2023-05-18T10:38:26.687Z,1020.32
2023-05-18T10:39:26.487Z,1020.34
2023-05-18T10:40:26.532Z,1020.32
2023-05-18T10:41:26.788Z,1020.30
2023-05-18T10:42:27.317Z,1020.28
2023-05-18T10:43:26.948Z,1020.34
2023-05-18T10:44:26.664Z,1020.32
2023-05-18T10:45:26.711Z,1020.30
2023-05-18T10:46:27.118Z,1020.35
2023-05-18T10:48:26.869Z,1020.37
2023-05-18T10:49:26.836Z,1020.41
2023-05-18T10:50:26.867Z,1020.37
2023-05-18T10:52:27.342Z,1020.35
2023-05-18T10:53:27.888Z,1020.36
2023-05-18T10:54:26.984Z,1020.29
2023-05-18T10:55:27.016Z,1020.27
2023-05-18T10:56:27.058Z,1020.40
2023-05-18T10:57:27.104Z,1020.37
2023-05-18T10:59:27.161Z,1020.18
2023-05-18T11:00:27.994Z,1020.07
2023-05-18T11:01:27.293Z,1020.13
2023-05-18T11:02:27.489Z,1020.12
2023-05-18T11:03:27.313Z,1020.09
2023-05-18T11:04:27.361Z,1020.14
2023-05-18T11:05:27.363Z,1019.93
2023-05-18T11:06:27.417Z,1019.97
2023-05-18T11:07:27.411Z,1020.15
2023-05-18T11:08:27.455Z,1020.05
2023-05-18T11:09:27.476Z,1020.00
2023-05-18T11:10:27.507Z,1020.02
2023-05-18T11:11:27.544Z,1020.02
2023-05-18T11:19:27.920Z,1020.03
2023-05-18T11:20:27.865Z,1019.96
2023-05-18T11:21:27.869Z,1019.94
2023-05-18T11:22:29.889Z,1019.94
2023-05-18T11:23:27.934Z,1019.97
2023-05-18T11:25:28.002Z,1019.95
2023-05-18T11:26:28.050Z,1019.94
2023-05-18T11:27:28.062Z,1019.90
2023-05-18T11:29:14.484Z,1019.97
2023-05-18T11:31:10.728Z,1019.90
2023-05-18T11:32:10.801Z,1019.96
2023-05-18T11:33:10.929Z,1019.94
2023-05-18T11:34:10.806Z,1019.93
2023-05-18T11:35:10.885Z,1019.86
2023-05-18T11:36:10.872Z,1019.85
2023-05-18T11:37:10.910Z,1019.83
2023-05-18T11:38:11.150Z,1019.79
2023-05-18T11:40:11.654Z,1019.78
2023-05-18T11:41:11.036Z,1019.78
2023-05-18T11:42:11.085Z,1019.70
2023-05-18T11:43:11.096Z,1019.80
2023-05-18T11:44:11.130Z,1019.72
2023-05-18T11:45:11.177Z,1019.47
2023-05-18T11:46:12.319Z,1019.79
2023-05-18T11:47:11.220Z,1019.75
2023-05-18T11:49:11.323Z,1019.72
2023-05-18T11:50:12.021Z,1019.70
2023-05-18T11:51:11.573Z,1019.64
2023-05-18T11:52:11.381Z,1019.68
2023-05-18T12:08:46.999Z,1019.54
2023-05-18T12:09:47.020Z,1019.49
2023-05-18T12:10:47.041Z,1019.45
2023-05-18T12:11:47.093Z,1019.48
2023-05-18T12:13:32.342Z,1019.48
2023-05-18T12:15:29.820Z,1019.35
2023-05-18T12:16:32.473Z,1019.49
2023-05-18T12:17:29.890Z,1019.44
2023-05-18T12:18:30.096Z,1019.26
2023-05-18T12:24:30.087Z,1019.36
2023-05-18T14:18:26.448Z,1018.22
2023-05-18T14:19:26.493Z,1018.19
2023-05-18T14:20:26.538Z,1018.11
2023-05-18T14:21:26.513Z,1018.16
2023-05-18T14:22:26.541Z,1018.12
2023-05-18T14:23:26.589Z,1018.08
2023-05-18T14:24:27.228Z,1018.11
2023-05-18T14:25:26.834Z,1018.08
2023-05-18T14:26:26.853Z,1018.13
2023-05-18T14:27:26.919Z,1018.12
2023-05-18T14:28:26.947Z,1018.10
2023-05-18T14:29:26.949Z,1018.06
2023-05-18T14:30:26.785Z,1018.02
2023-05-18T14:31:26.872Z,1018.01
2023-05-18T14:32:26.884Z,1018.05
2023-05-18T14:33:26.868Z,1018.04
2023-05-18T14:34:26.918Z,1018.02
2023-05-18T14:35:26.933Z,1018.04
2023-05-18T14:36:26.958Z,1018.01
2023-05-18T14:37:27.001Z,1018.03
2023-05-18T14:38:27.074Z,1018.03
2023-05-18T14:39:27.049Z,1018.08
2023-05-18T14:40:27.081Z,1018.02
2023-05-18T14:41:27.111Z,1018.04
2023-05-18T14:42:27.152Z,1018.01
2023-05-18T14:43:27.176Z,1018.00
2023-05-18T14:44:27.209Z,1017.99
2023-05-18T14:45:27.232Z,1018.02
2023-05-18T14:46:27.291Z,1018.02
2023-05-18T14:47:27.330Z,1018.00
2023-05-18T14:48:27.327Z,1018.01
2023-05-18T14:49:27.369Z,1018.03
2023-05-18T14:51:27.436Z,1017.95
2023-05-18T14:52:27.445Z,1017.93
2023-05-18T14:53:27.470Z,1017.94
2023-05-18T14:54:27.505Z,1017.93
2023-05-18T14:55:27.537Z,1017.94
2023-05-18T14:56:27.586Z,1017.92
2023-05-18T14:57:27.616Z,1017.91
2023-05-18T14:58:27.620Z,1017.94
2023-05-18T14:59:27.653Z,1017.93
2023-05-18T15:00:27.685Z,1017.96
2023-05-18T15:01:27.735Z,1017.92
2023-05-18T15:02:27.902Z,1017.93
2023-05-18T15:04:15.437Z,1018.00
2023-05-18T15:05:15.369Z,1017.90
2023-05-18T15:06:15.406Z,1017.97
2023-05-18T15:07:15.456Z,1018.04
2023-05-18T15:08:15.457Z,1017.96
2023-05-18T15:09:15.491Z,1017.98
2023-05-18T15:10:15.533Z,1017.97
2023-05-18T15:11:15.768Z,1018.03
2023-05-18T15:12:15.581Z,1018.01
2023-05-18T15:13:15.628Z,1017.96
2023-05-18T15:14:15.641Z,1017.95
2023-05-18T15:15:15.692Z,1017.97
2023-05-18T15:16:15.723Z,1017.91
2023-05-18T15:17:15.735Z,1017.92
2023-05-18T15:18:16.039Z,1017.99
2023-05-18T15:19:16.032Z,1017.94
2023-05-18T15:20:15.828Z,1017.91
2023-05-18T15:21:15.850Z,1017.99
2023-05-18T15:22:15.887Z,1017.95
2023-05-18T15:23:15.942Z,1017.97
2023-05-18T15:24:15.945Z,1017.98
2023-05-18T15:25:15.976Z,1017.96
2023-05-18T15:26:16.005Z,1017.96
2023-05-18T15:27:16.037Z,1017.96
2023-05-18T15:28:16.068Z,1017.94
2023-05-18T15:29:16.098Z,1017.95
2023-05-18T15:30:16.125Z,1017.92
2023-05-18T15:31:16.220Z,1017.91
2023-05-18T15:32:16.400Z,1017.93
2023-05-18T15:33:16.250Z,1017.95
2023-05-18T15:34:16.241Z,1017.93
2023-05-18T15:35:16.292Z,1017.93
2023-05-18T15:36:16.306Z,1017.91
2023-05-18T15:37:16.350Z,1017.94
2023-05-18T15:38:16.392Z,1017.89
2023-05-18T15:39:16.423Z,1017.90
2023-05-18T15:40:16.441Z,1017.95
2023-05-18T15:42:16.504Z,1017.91
2023-05-18T15:44:16.767Z,1017.91
2023-05-18T15:45:17.023Z,1017.90
2023-05-18T15:46:18.039Z,1017.93
2023-05-18T15:48:26.170Z,1017.85
2023-05-18T15:49:24.479Z,1017.83
2023-05-18T15:50:24.702Z,1017.81
2023-05-18T15:51:24.538Z,1017.82
2023-05-18T15:52:24.762Z,1017.86
2023-05-18T15:53:24.607Z,1017.81
2023-05-18T15:54:24.632Z,1017.82
2023-05-18T15:55:24.647Z,1017.80
2023-05-18T15:56:24.675Z,1017.85
2023-05-18T15:58:24.734Z,1017.80
2023-05-18T15:59:24.786Z,1017.74
2023-05-18T16:00:24.792Z,1017.75
2023-05-18T16:01:24.878Z,1017.78
2023-05-18T16:02:26.014Z,1017.71
2023-05-18T16:03:25.179Z,1017.72
2023-05-18T16:04:24.935Z,1017.76
2023-05-18T16:10:25.169Z,1017.72
2023-05-18T16:11:25.125Z,1017.72
2023-05-18T16:13:37.786Z,1017.81
2023-05-18T16:14:37.804Z,1017.71
2023-05-18T16:15:37.842Z,1017.69
2023-05-18T16:16:37.894Z,1017.72
2023-05-18T16:17:38.008Z,1017.70
2023-05-18T16:18:38.075Z,1017.67
2023-05-18T16:19:37.960Z,1017.70
2023-05-18T16:21:38.338Z,1017.67
2023-05-18T16:22:38.362Z,1017.69
2023-05-18T16:23:38.090Z,1017.60
2023-05-18T16:25:38.537Z,1017.63
2023-05-18T16:26:40.015Z,1017.70
2023-05-18T16:27:39.608Z,1017.65
2023-05-18T16:28:38.234Z,1017.65
2023-05-18T16:32:38.396Z,1017.71
2023-05-18T16:33:38.408Z,1017.71
2023-05-18T16:34:38.453Z,1017.73
2023-05-18T16:35:38.446Z,1017.71
2023-05-18T16:38:39.282Z,1017.72
2023-05-18T16:39:38.566Z,1017.69
2023-05-18T16:40:38.597Z,1017.69
2023-05-18T16:41:38.653Z,1017.72
2023-05-18T16:42:38.661Z,1017.75
2023-05-18T16:43:38.694Z,1017.76
2023-05-18T16:44:38.702Z,1017.80
2023-05-18T16:45:38.736Z,1017.72
2023-05-18T16:46:38.787Z,1017.72
2023-05-18T16:47:38.808Z,1017.72
2023-05-18T16:48:38.822Z,1017.70
2023-05-18T16:50:38.878Z,1017.69
2023-05-18T16:51:38.910Z,1017.69
2023-05-18T16:52:38.934Z,1017.72
2023-05-18T16:53:38.983Z,1017.78
2023-05-18T16:54:39.005Z,1017.76
2023-05-18T16:55:39.241Z,1017.77
2023-05-18T16:56:39.078Z,1017.80
2023-05-18T16:57:39.123Z,1017.80
2023-05-18T16:58:39.112Z,1017.71
2023-05-18T16:59:39.147Z,1017.74
2023-05-18T17:00:39.175Z,1017.76
2023-05-18T17:01:39.278Z,1017.76
2023-05-18T17:02:39.511Z,1017.78
2023-05-18T17:03:39.356Z,1017.77
2023-05-18T17:04:39.291Z,1017.74
2023-05-18T17:05:39.332Z,1017.72
2023-05-18T17:06:39.351Z,1017.78
2023-05-18T17:07:39.383Z,1017.82